Time;durP1;ratioP1;P1;durP2;ratioP2;P2;SDS_P1;SDS_P2;PMS_P1;PMS_P2;Temp;Humidity;BMP_temperature;BMP_pressure;BME280_temperature;BME280_humidity;BME280_pressure;Samples;Min_cycle;Max_cycle;Signal;HPM_P1;HPM_P2
2021/01/06 00:01:16;;;;;;;17.10;10.65;;;2.70;86.00;;;;;;5019193;28;20192;-67
2021/01/06 00:03:42;;;;;;;17.63;11.43;;;2.80;86.20;;;;;;5012535;28;20072;-67
2021/01/06 00:06:11;;;;;;;20.25;11.07;;;2.70;86.20;;;;;;5007470;28;20049;-67
2021/01/06 00:08:37;;;;;;;16.60;10.57;;;2.70;86.10;;;;;;5007458;28;20036;-67
2021/01/06 00:11:04;;;;;;;19.15;10.82;;;2.70;86.00;;;;;;5008179;28;20045;-67
2021/01/06 00:13:29;;;;;;;17.67;11.02;;;2.70;86.20;;;;;;5008756;28;20030;-67
2021/01/06 00:15:56;;;;;;;19.52;10.82;;;2.70;86.20;;;;;;5008882;28;20474;-67
2021/01/06 00:18:23;;;;;;;21.55;10.52;;;2.70;86.30;;;;;;5009631;28;20041;-67
2021/01/06 00:20:49;;;;;;;13.77;8.60;;;2.70;86.30;;;;;;5008445;28;20409;-67
2021/01/06 00:23:15;;;;;;;16.55;10.13;;;2.70;86.10;;;;;;5008912;28;20720;-67
2021/01/06 00:25:41;;;;;;;17.52;10.25;;;2.70;86.10;;;;;;5006735;28;20186;-67
2021/01/06 00:28:09;;;;;;;15.13;9.55;;;2.60;86.20;;;;;;5008719;28;20017;-67
2021/01/06 00:30:37;;;;;;;15.90;9.13;;;2.60;86.20;;;;;;4986025;28;20030;-67
2021/01/06 00:33:08;;;;;;;14.57;8.95;;;2.60;86.30;;;;;;5009481;28;20030;-67
2021/01/06 00:35:34;;;;;;;16.07;9.33;;;2.50;86.30;;;;;;5008563;28;20084;-67
2021/01/06 00:38:00;;;;;;;14.55;9.23;;;2.50;86.40;;;;;;4992343;28;20033;-67
2021/01/06 00:40:31;;;;;;;17.17;9.77;;;2.50;86.40;;;;;;5009219;28;20037;-67
2021/01/06 00:42:58;;;;;;;15.95;9.23;;;2.50;86.40;;;;;;5009874;28;20101;-67
2021/01/06 00:45:24;;;;;;;15.30;9.90;;;2.60;86.40;;;;;;5008833;28;20026;-67
2021/01/06 00:47:50;;;;;;;18.58;9.98;;;2.60;86.40;;;;;;5009490;28;20037;-67
2021/01/06 00:50:17;;;;;;;17.08;9.98;;;2.60;86.30;;;;;;5005811;28;20030;-67
2021/01/06 00:52:43;;;;;;;16.98;9.65;;;2.60;86.40;;;;;;5007903;28;20030;-67
2021/01/06 00:55:09;;;;;;;16.98;9.77;;;2.60;86.40;;;;;;5008358;28;20079;-67
2021/01/06 00:57:35;;;;;;;19.90;11.32;;;2.60;86.10;;;;;;4992123;28;20072;-67
2021/01/06 01:00:00;;;;;;;17.30;9.93;;;2.60;86.30;;;;;;5007935;28;20045;-67
2021/01/06 01:02:26;;;;;;;23.48;10.85;;;2.50;86.10;;;;;;5008597;28;20040;-67
2021/01/06 01:04:51;;;;;;;19.60;10.05;;;2.50;86.10;;;;;;5006824;28;20026;-67
2021/01/06 01:07:17;;;;;;;20.58;11.10;;;2.40;86.20;;;;;;5009047;28;20026;-67
2021/01/06 01:09:45;;;;;;;24.92;11.18;;;2.40;86.30;;;;;;5009453;28;20026;-67
2021/01/06 01:12:12;;;;;;;22.38;11.63;;;2.40;86.30;;;;;;5006729;28;20037;-67
2021/01/06 01:14:38;;;;;;;20.25;10.50;;;2.40;86.30;;;;;;5006359;28;20033;-67
2021/01/06 01:17:04;;;;;;;18.85;11.00;;;2.40;86.10;;;;;;5012427;28;20022;-67
2021/01/06 01:19:29;;;;;;;25.73;13.40;;;2.40;86.10;;;;;;5016640;28;20021;-67
2021/01/06 01:21:55;;;;;;;27.17;12.70;;;2.30;86.10;;;;;;5012169;28;20100;-67
2021/01/06 01:24:20;;;;;;;27.17;13.23;;;2.30;86.10;;;;;;5011091;28;20415;-67
2021/01/06 01:26:52;;;;;;;25.38;12.63;;;2.30;86.20;;;;;;5010485;28;20018;-67
2021/01/06 01:29:18;;;;;;;34.20;15.38;;;2.30;86.20;;;;;;5011852;28;20438;-67
2021/01/06 01:31:46;;;;;;;23.02;11.68;;;2.30;86.10;;;;;;5012165;28;20045;-67
2021/01/06 01:34:12;;;;;;;19.67;10.57;;;2.30;86.20;;;;;;5012262;28;20026;-67
2021/01/06 01:36:44;;;;;;;18.50;10.40;;;2.30;86.40;;;;;;5013610;28;20037;-67
2021/01/06 01:39:09;;;;;;;19.40;10.23;;;2.30;86.20;;;;;;5012203;28;20117;-67
2021/01/06 01:41:35;;;;;;;18.20;10.48;;;2.30;86.20;;;;;;5012510;28;20156;-67
2021/01/06 01:44:00;;;;;;;17.25;10.30;;;2.30;86.20;;;;;;5012274;28;20072;-67
2021/01/06 01:46:43;;;;;;;16.40;10.20;;;2.30;86.20;;;;;;5012699;28;20133;-67
2021/01/06 01:49:16;;;;;;;15.82;9.45;;;2.30;86.20;;;;;;5005630;28;20021;-67
2021/01/06 01:52:03;;;;;;;18.02;10.13;;;2.30;86.00;;;;;;5007810;28;20049;-67
2021/01/06 01:54:30;;;;;;;20.05;10.90;;;2.40;86.20;;;;;;5002534;28;20030;-67
2021/01/06 01:57:10;;;;;;;17.30;10.63;;;2.40;86.20;;;;;;5033547;28;20071;-67
2021/01/06 01:59:50;;;;;;;15.80;9.73;;;2.40;86.00;;;;;;5013714;28;20119;-67
2021/01/06 02:02:38;;;;;;;18.58;10.05;;;2.40;86.00;;;;;;5008137;28;20030;-67
2021/01/06 02:05:17;;;;;;;17.70;10.38;;;2.50;86.00;;;;;;5009517;28;20038;-67
2021/01/06 02:07:54;;;;;;;17.35;9.82;;;2.50;86.00;;;;;;5013416;28;20022;-67
2021/01/06 02:10:28;;;;;;;17.50;10.35;;;2.50;85.90;;;;;;5001454;28;20030;-67
2021/01/06 02:13:02;;;;;;;18.60;10.75;;;2.50;85.80;;;;;;5010004;28;20026;-67
2021/01/06 02:15:47;;;;;;;17.73;10.15;;;2.60;85.70;;;;;;5009724;28;20061;-67
2021/01/06 02:18:14;;;;;;;18.38;10.30;;;2.60;85.70;;;;;;5011198;28;20031;-67
2021/01/06 02:20:39;;;;;;;15.90;9.65;;;2.60;85.70;;;;;;5010172;28;20073;-67
2021/01/06 02:23:05;;;;;;;19.02;10.43;;;2.60;85.70;;;;;;5012441;28;20457;-67
2021/01/06 02:25:32;;;;;;;18.13;10.55;;;2.60;85.70;;;;;;5008464;28;20490;-67
2021/01/06 02:28:00;;;;;;;17.90;10.55;;;2.60;85.70;;;;;;5007903;28;20030;-67
2021/01/06 02:30:26;;;;;;;17.75;9.88;;;2.60;85.60;;;;;;5012873;28;20414;-67
2021/01/06 02:32:53;;;;;;;18.40;10.23;;;2.60;85.60;;;;;;4993971;28;20045;-67
2021/01/06 02:35:19;;;;;;;17.10;10.23;;;2.70;85.70;;;;;;5010035;28;20022;-67
2021/01/06 02:37:45;;;;;;;19.10;10.57;;;2.60;85.60;;;;;;5012183;28;20056;-67
2021/01/06 02:40:12;;;;;;;19.05;10.77;;;2.60;85.50;;;;;;5011964;28;20066;-67
2021/01/06 02:42:39;;;;;;;17.10;9.98;;;2.60;85.60;;;;;;5010368;28;20088;-67
2021/01/06 02:45:09;;;;;;;19.33;10.85;;;2.70;85.50;;;;;;4992444;28;20099;-67
2021/01/06 02:47:36;;;;;;;16.83;10.63;;;2.70;85.50;;;;;;5011580;28;20026;-67
2021/01/06 02:50:03;;;;;;;16.52;10.35;;;2.70;85.50;;;;;;5005985;28;20027;-67
2021/01/06 02:52:37;;;;;;;18.23;10.38;;;2.60;85.50;;;;;;4992469;28;20657;-67
2021/01/06 02:55:09;;;;;;;16.52;10.30;;;2.70;85.50;;;;;;5010620;28;20231;-67
2021/01/06 02:57:36;;;;;;;17.52;9.90;;;2.70;85.60;;;;;;5016865;28;20032;-67
2021/01/06 03:00:05;;;;;;;19.67;10.68;;;2.70;85.50;;;;;;5012103;28;20113;-67
2021/01/06 03:02:31;;;;;;;16.25;10.10;;;2.70;85.50;;;;;;5007294;28;20372;-67
2021/01/06 03:05:03;;;;;;;18.33;9.48;;;2.70;85.40;;;;;;5010873;28;20029;-67
2021/01/06 03:07:30;;;;;;;14.32;8.73;;;2.60;85.50;;;;;;5010964;28;20056;-67
2021/01/06 03:09:56;;;;;;;16.55;9.90;;;2.70;85.50;;;;;;5010043;28;20398;-67
2021/01/06 03:12:27;;;;;;;18.63;10.45;;;2.70;85.50;;;;;;5008811;28;20032;-67
2021/01/06 03:14:53;;;;;;;18.50;10.35;;;2.70;85.50;;;;;;5010197;28;20025;-67
2021/01/06 03:17:19;;;;;;;18.60;10.55;;;2.70;85.50;;;;;;5011471;28;20055;-67
2021/01/06 03:19:50;;;;;;;15.98;10.57;;;2.70;85.40;;;;;;5009790;28;20028;-67
2021/01/06 03:22:19;;;;;;;19.73;11.48;;;2.70;85.40;;;;;;4991365;28;20030;-67
2021/01/06 03:24:53;;;;;;;14.57;9.48;;;2.70;85.40;;;;;;5009607;28;20410;-67
2021/01/06 03:27:20;;;;;;;17.38;10.05;;;2.70;85.40;;;;;;5010668;28;20498;-67
2021/01/06 03:29:46;;;;;;;15.13;9.73;;;2.70;85.40;;;;;;5010495;28;20033;-67
2021/01/06 03:32:20;;;;;;;16.20;9.70;;;2.70;85.30;;;;;;5010391;28;20025;-67
2021/01/06 03:34:53;;;;;;;16.33;10.05;;;2.70;85.20;;;;;;5023602;28;20117;-67
2021/01/06 03:37:25;;;;;;;18.55;10.68;;;2.70;85.20;;;;;;5010931;28;20042;-67
2021/01/06 03:39:55;;;;;;;16.17;9.98;;;2.70;85.30;;;;;;5009243;28;20041;-67
2021/01/06 03:42:22;;;;;;;15.70;9.60;;;2.60;85.40;;;;;;4993252;28;20042;-67
2021/01/06 03:44:49;;;;;;;15.93;9.88;;;2.70;85.40;;;;;;4991785;28;20382;-67
2021/01/06 03:47:24;;;;;;;14.95;9.85;;;2.70;85.30;;;;;;5009825;28;20026;-67
2021/01/06 03:50:06;;;;;;;16.52;9.80;;;2.70;85.30;;;;;;5006118;28;20413;-67
2021/01/06 03:52:50;;;;;;;15.25;10.27;;;2.70;85.40;;;;;;4996484;28;20025;-67
2021/01/06 03:55:26;;;;;;;13.90;9.02;;;2.70;85.30;;;;;;5009513;28;20026;-67
2021/01/06 03:57:55;;;;;;;13.77;9.13;;;2.70;85.30;;;;;;4990758;28;20038;-67
2021/01/06 04:00:38;;;;;;;17.80;9.73;;;2.70;85.20;;;;;;5009573;28;20750;-67
2021/01/06 04:03:16;;;;;;;14.18;9.25;;;2.80;85.20;;;;;;5000826;28;20066;-67
2021/01/06 04:05:43;;;;;;;15.75;9.40;;;2.70;85.10;;;;;;4977383;28;20084;-67
2021/01/06 04:08:13;;;;;;;15.23;9.80;;;2.70;85.10;;;;;;5006725;28;20049;-67
2021/01/06 04:10:47;;;;;;;14.63;9.48;;;2.70;85.10;;;;;;5007669;28;20038;-67
2021/01/06 04:13:12;;;;;;;15.68;9.57;;;2.70;85.10;;;;;;5004640;28;20030;-67
2021/01/06 04:15:38;;;;;;;15.02;8.98;;;2.70;85.10;;;;;;5008401;28;20156;-67
2021/01/06 04:18:04;;;;;;;15.75;9.68;;;2.70;85.10;;;;;;5008114;28;20037;-67
2021/01/06 04:20:41;;;;;;;15.95;10.02;;;2.70;85.10;;;;;;5004734;28;20044;-67
2021/01/06 04:23:16;;;;;;;14.40;9.52;;;2.70;85.00;;;;;;5008740;28;20076;-67
2021/01/06 04:25:47;;;;;;;14.90;9.82;;;2.70;85.10;;;;;;5009136;28;20036;-67
2021/01/06 04:28:18;;;;;;;14.98;9.40;;;2.70;85.00;;;;;;5008034;28;20026;-67
2021/01/06 04:30:50;;;;;;;15.80;9.88;;;2.70;85.10;;;;;;5010428;28;20046;-66
2021/01/06 04:33:29;;;;;;;15.57;9.65;;;2.70;85.00;;;;;;5005915;28;20383;-66
2021/01/06 04:35:57;;;;;;;14.63;9.30;;;2.70;84.90;;;;;;4991345;28;20394;-66
2021/01/06 04:38:26;;;;;;;14.65;9.13;;;2.70;84.90;;;;;;5008603;28;20026;-66
2021/01/06 04:40:55;;;;;;;14.13;9.23;;;2.70;85.00;;;;;;5010627;28;20034;-66
2021/01/06 04:43:37;;;;;;;13.20;8.60;;;2.60;85.00;;;;;;5006035;28;20022;-66
2021/01/06 04:46:20;;;;;;;15.07;9.45;;;2.60;85.00;;;;;;5008081;28;20048;-66
2021/01/06 04:48:57;;;;;;;15.18;9.27;;;2.60;85.00;;;;;;5005551;28;20112;-66
2021/01/06 04:51:30;;;;;;;15.73;9.02;;;2.60;85.00;;;;;;5010707;28;20041;-66
2021/01/06 04:54:30;;;;;;;16.65;10.07;;;2.60;85.10;;;;;;5011846;28;20026;-66
2021/01/06 04:57:07;;;;;;;15.93;9.27;;;2.50;85.70;;;;;;4989072;28;20096;-66
2021/01/06 04:59:52;;;;;;;12.88;8.93;;;2.50;85.30;;;;;;5011068;28;20029;-66
2021/01/06 05:02:32;;;;;;;13.57;8.10;;;2.50;85.40;;;;;;5013614;28;20112;-66
2021/01/06 05:05:22;;;;;;;13.90;8.45;;;2.50;85.20;;;;;;5011899;28;20505;-66
2021/01/06 05:08:06;;;;;;;13.90;7.80;;;2.50;85.20;;;;;;5013243;28;20030;-66
2021/01/06 05:10:53;;;;;;;13.02;7.78;;;2.50;85.30;;;;;;5014367;28;20492;-66
2021/01/06 05:13:43;;;;;;;11.77;8.07;;;2.50;85.30;;;;;;5027444;28;20429;-66
2021/01/06 05:16:21;;;;;;;12.38;8.07;;;2.60;85.30;;;;;;5010614;28;20025;-66
2021/01/06 05:18:47;;;;;;;12.85;8.68;;;2.60;85.30;;;;;;5002435;28;20034;-66
2021/01/06 05:21:22;;;;;;;13.15;8.20;;;2.60;85.20;;;;;;5013542;28;20053;-66
2021/01/06 05:23:51;;;;;;;11.60;8.32;;;2.60;85.20;;;;;;5012781;28;20166;-66
2021/01/06 05:26:17;;;;;;;12.15;8.25;;;2.60;85.20;;;;;;5013479;28;20366;-66
2021/01/06 05:28:46;;;;;;;13.00;7.80;;;2.60;85.20;;;;;;5010689;28;20029;-66
2021/01/06 05:31:11;;;;;;;11.38;7.68;;;2.60;85.10;;;;;;5011072;28;20037;-66
2021/01/06 05:33:45;;;;;;;12.82;8.50;;;2.60;85.10;;;;;;5012613;28;20026;-66
2021/01/06 05:36:22;;;;;;;10.57;7.28;;;2.60;85.10;;;;;;5011333;28;20045;-65
2021/01/06 05:38:48;;;;;;;12.52;8.00;;;2.60;85.00;;;;;;5012591;28;20390;-66
2021/01/06 05:41:14;;;;;;;11.77;7.60;;;2.60;85.00;;;;;;5012035;28;20036;-66
2021/01/06 05:43:49;;;;;;;11.25;8.13;;;2.60;85.10;;;;;;5009321;28;20514;-66
2021/01/06 05:46:34;;;;;;;9.65;7.05;;;2.60;85.10;;;;;;5011871;28;20117;-65
2021/01/06 05:51:35;;;;;;;11.70;7.85;;;2.60;85.10;;;;;;5025856;28;20057;-69
2021/01/06 05:54:18;;;;;;;10.48;7.68;;;2.60;85.20;;;;;;5015655;28;20529;-69
2021/01/06 05:57:01;;;;;;;10.27;7.50;;;2.50;85.00;;;;;;5026292;28;20040;-67
2021/01/06 05:59:42;;;;;;;11.50;7.82;;;2.60;85.10;;;;;;5028882;28;20433;-68
2021/01/06 06:02:08;;;;;;;12.13;8.15;;;2.50;85.10;;;;;;5029717;28;22344;-67
2021/01/06 06:04:45;;;;;;;10.52;7.53;;;2.60;85.10;;;;;;5030491;28;20037;-65
2021/01/06 06:07:13;;;;;;;11.35;7.72;;;2.60;85.10;;;;;;5031899;28;20026;-68
2021/01/06 06:10:10;;;;;;;9.93;7.53;;;2.60;85.00;;;;;;5032057;28;20029;-66
2021/01/06 06:13:03;;;;;;;10.90;7.82;;;2.60;85.00;;;;;;5027167;28;20491;-69
2021/01/06 06:15:50;;;;;;;8.77;7.22;;;2.50;84.80;;;;;;5028599;28;20496;-67
2021/01/06 06:18:24;;;;;;;10.98;7.28;;;2.60;85.00;;;;;;5029645;28;20569;-67
2021/01/06 06:21:18;;;;;;;11.48;8.02;;;2.50;85.10;;;;;;5030349;28;20105;-66
2021/01/06 06:23:57;;;;;;;11.82;7.70;;;2.50;85.20;;;;;;5032290;28;20388;-67
2021/01/06 06:26:54;;;;;;;11.07;7.72;;;2.50;85.20;;;;;;5042889;28;20053;-65
2021/01/06 06:29:33;;;;;;;9.85;7.60;;;2.50;85.30;;;;;;5029754;28;20021;-67
2021/01/06 06:31:59;;;;;;;11.00;7.40;;;2.50;85.30;;;;;;5031029;28;20108;-65
2021/01/06 06:34:37;;;;;;;12.80;7.68;;;2.50;85.20;;;;;;5029943;28;20120;-68
2021/01/06 06:37:14;;;;;;;10.70;7.88;;;2.50;85.30;;;;;;5030292;28;20032;-68
2021/01/06 06:40:03;;;;;;;9.10;7.10;;;2.50;85.30;;;;;;5032010;28;20122;-68
2021/01/06 06:42:34;;;;;;;10.50;7.65;;;2.50;85.30;;;;;;5028792;28;20033;-67
2021/01/06 06:45:29;;;;;;;12.77;8.63;;;2.50;85.30;;;;;;5030031;28;20470;-68
2021/01/06 06:48:10;;;;;;;11.65;7.50;;;2.50;85.30;;;;;;5031583;28;20029;-69
2021/01/06 06:50:51;;;;;;;11.05;7.78;;;2.50;85.20;;;;;;5029168;28;20500;-65
2021/01/06 06:53:39;;;;;;;10.13;7.80;;;2.50;85.30;;;;;;5031371;28;20060;-65
2021/01/06 06:56:16;;;;;;;12.18;8.20;;;2.50;85.90;;;;;;5017880;28;20040;-65
2021/01/06 06:58:46;;;;;;;11.77;7.78;;;2.50;85.40;;;;;;5030678;28;20021;-67
2021/01/06 07:01:38;;;;;;;10.57;7.75;;;2.50;85.40;;;;;;5036347;28;20025;-67
2021/01/06 07:04:27;;;;;;;10.30;7.53;;;2.50;85.50;;;;;;5030768;28;20492;-68
2021/01/06 07:06:59;;;;;;;13.15;8.57;;;2.50;85.40;;;;;;5025445;28;20511;-67
2021/01/06 07:09:30;;;;;;;13.27;9.40;;;2.50;85.40;;;;;;5030359;28;20148;-67
2021/01/06 07:12:08;;;;;;;13.47;9.07;;;2.50;85.50;;;;;;5031432;28;20132;-68
2021/01/06 07:14:38;;;;;;;14.77;9.48;;;2.40;85.50;;;;;;5024742;28;20029;-68
2021/01/06 07:17:10;;;;;;;12.80;8.65;;;2.40;85.70;;;;;;5030237;28;20073;-67
2021/01/06 07:19:56;;;;;;;15.10;8.82;;;2.50;85.70;;;;;;5030167;28;20036;-65
2021/01/06 07:22:37;;;;;;;14.00;9.10;;;2.50;85.70;;;;;;5028521;28;20167;-68
2021/01/06 07:25:30;;;;;;;13.20;9.23;;;2.50;85.60;;;;;;5029395;28;20029;-68
2021/01/06 07:28:03;;;;;;;12.27;8.25;;;2.60;85.50;;;;;;5025967;28;20036;-71
2021/01/06 07:30:38;;;;;;;12.25;8.95;;;2.60;85.40;;;;;;5026202;28;20057;-70
2021/01/06 07:33:38;;;;;;;13.05;9.48;;;2.60;85.30;;;;;;5030612;28;20049;-68
2021/01/06 07:36:19;;;;;;;13.85;8.95;;;2.70;85.30;;;;;;5020298;28;20044;-69
2021/01/06 07:38:46;;;;;;;13.55;9.82;;;2.60;85.20;;;;;;5030526;28;20076;-65
2021/01/06 07:41:13;;;;;;;15.23;10.07;;;2.60;85.20;;;;;;5030439;28;20033;-70
2021/01/06 07:43:56;;;;;;;14.40;9.00;;;2.70;85.30;;;;;;5033564;28;20029;-65
2021/01/06 07:46:23;;;;;;;12.27;8.38;;;2.70;85.20;;;;;;5030352;28;20013;-65
2021/01/06 07:48:54;;;;;;;14.85;9.60;;;2.60;85.20;;;;;;5028389;28;20025;-68
2021/01/06 07:51:24;;;;;;;13.57;9.80;;;2.60;85.40;;;;;;5025426;28;20032;-67
2021/01/06 07:54:10;;;;;;;18.63;13.50;;;2.70;85.40;;;;;;5038527;28;20036;-67
2021/01/06 07:57:06;;;;;;;16.15;12.65;;;2.70;85.40;;;;;;5023678;28;20022;-67
2021/01/06 07:59:46;;;;;;;15.68;10.52;;;2.60;85.30;;;;;;5023868;28;20071;-67
2021/01/06 08:02:17;;;;;;;12.80;9.43;;;2.70;85.20;;;;;;5027654;28;20095;-68
2021/01/06 08:04:51;;;;;;;11.98;9.30;;;2.60;85.20;;;;;;5023927;28;20036;-67
2021/01/06 08:07:21;;;;;;;12.43;9.73;;;2.60;85.20;;;;;;5030312;28;20025;-69
2021/01/06 08:09:48;;;;;;;14.93;10.10;;;2.60;85.30;;;;;;5028481;28;20036;-67
2021/01/06 08:12:25;;;;;;;12.00;8.73;;;2.60;85.30;;;;;;5028689;28;20030;-68
2021/01/06 08:15:05;;;;;;;10.73;7.70;;;2.60;85.30;;;;;;5022261;28;20037;-67
2021/01/06 08:17:44;;;;;;;12.23;7.88;;;2.60;85.30;;;;;;5028762;28;20025;-67
2021/01/06 08:20:11;;;;;;;9.65;7.65;;;2.60;85.40;;;;;;5044084;28;20026;-65
2021/01/06 08:22:53;;;;;;;10.63;8.05;;;2.60;85.40;;;;;;5027981;28;20030;-67
2021/01/06 08:25:21;;;;;;;11.80;7.82;;;2.60;85.40;;;;;;5043300;28;20026;-67
2021/01/06 08:27:47;;;;;;;9.93;7.22;;;2.60;85.40;;;;;;5025632;28;20056;-67
2021/01/06 08:30:21;;;;;;;9.68;7.38;;;2.60;85.50;;;;;;5029167;28;20053;-67
2021/01/06 08:33:01;;;;;;;12.10;8.23;;;2.60;85.50;;;;;;5030001;28;20029;-67
2021/01/06 08:35:31;;;;;;;11.38;8.18;;;2.60;85.40;;;;;;5043748;28;20043;-67
2021/01/06 08:37:56;;;;;;;12.02;8.25;;;2.70;85.50;;;;;;5029151;28;20030;-67
2021/01/06 08:40:30;;;;;;;11.02;8.07;;;2.70;85.50;;;;;;5029190;28;20044;-68
2021/01/06 08:42:56;;;;;;;14.57;8.70;;;2.70;85.40;;;;;;5028968;28;20037;-67
2021/01/06 08:45:30;;;;;;;13.05;8.35;;;2.70;85.40;;;;;;5029091;28;20029;-66
2021/01/06 08:47:56;;;;;;;11.80;8.60;;;2.70;85.40;;;;;;5029343;28;20025;-67
2021/01/06 08:50:35;;;;;;;11.88;8.57;;;2.80;85.40;;;;;;5027068;28;20374;-67
2021/01/06 08:53:05;;;;;;;13.02;9.32;;;2.80;85.40;;;;;;5023561;28;20024;-67
2021/01/06 08:55:38;;;;;;;13.52;8.45;;;2.80;85.20;;;;;;5025720;28;20029;-68
2021/01/06 08:58:10;;;;;;;10.95;8.05;;;2.80;85.20;;;;;;5028764;28;20034;-66
2021/01/06 09:00:40;;;;;;;12.57;7.68;;;2.80;85.20;;;;;;5028562;28;20034;-67
2021/01/06 09:03:29;;;;;;;11.48;8.02;;;2.80;85.20;;;;;;5029725;28;20490;-67
2021/01/06 09:06:10;;;;;;;12.88;8.25;;;2.70;85.20;;;;;;5025586;28;20029;-67
2021/01/06 09:08:38;;;;;;;14.75;8.80;;;2.80;85.30;;;;;;5029785;28;20077;-67
2021/01/06 09:11:23;;;;;;;14.57;8.80;;;2.80;85.40;;;;;;5047784;28;20112;-66
2021/01/06 09:14:04;;;;;;;13.35;8.27;;;2.80;85.40;;;;;;5024082;28;20596;-69
2021/01/06 09:16:40;;;;;;;13.27;8.75;;;2.70;85.30;;;;;;5029242;28;20026;-68
2021/01/06 09:19:24;;;;;;;14.80;9.60;;;2.80;85.30;;;;;;5029593;28;20600;-66
2021/01/06 09:21:51;;;;;;;21.50;13.63;;;2.70;85.30;;;;;;5027692;28;20120;-67
2021/01/06 09:24:32;;;;;;;16.77;10.75;;;2.80;85.80;;;;;;5028134;28;20026;-67
2021/01/06 09:27:03;;;;;;;20.23;11.60;;;2.90;85.70;;;;;;5029377;28;20076;-69
2021/01/06 09:29:34;;;;;;;20.33;12.38;;;2.90;85.50;;;;;;5026871;28;20029;-67
2021/01/06 09:32:03;;;;;;;17.50;11.30;;;2.90;85.50;;;;;;5043987;28;20033;-67
2021/01/06 09:34:36;;;;;;;19.35;10.30;;;2.90;85.40;;;;;;5028407;28;20052;-67
2021/01/06 09:37:04;;;;;;;17.02;10.05;;;2.90;85.40;;;;;;5030166;28;20485;-67
2021/01/06 09:39:32;;;;;;;15.65;10.20;;;2.90;85.50;;;;;;5033076;28;20029;-64
2021/01/06 09:42:00;;;;;;;20.55;11.80;;;2.90;85.50;;;;;;5030567;28;20458;-66
2021/01/06 09:44:29;;;;;;;21.20;12.68;;;3.00;86.10;;;;;;5032054;28;20052;-65
2021/01/06 09:47:05;;;;;;;19.92;12.02;;;3.20;86.80;;;;;;5032954;28;20055;-65
2021/01/06 09:49:47;;;;;;;15.07;9.45;;;3.50;87.30;;;;;;5031383;28;20413;-65
2021/01/06 09:52:36;;;;;;;14.65;10.00;;;3.70;86.30;;;;;;5032208;28;20033;-65
2021/01/06 09:55:06;;;;;;;15.75;9.20;;;3.90;86.10;;;;;;5005347;28;20104;-64
2021/01/06 09:57:33;;;;;;;13.55;8.32;;;4.00;85.60;;;;;;5029348;28;20438;-66
2021/01/06 10:00:07;;;;;;;13.40;9.07;;;4.10;85.30;;;;;;5032983;28;20065;-68
2021/01/06 10:02:36;;;;;;;13.63;8.95;;;4.20;85.40;;;;;;5028717;28;20071;-65
2021/01/06 10:05:40;;;;;;;11.23;8.00;;;4.20;84.60;;;;;;5030236;28;20021;-67
2021/01/06 10:08:11;;;;;;;13.35;8.73;;;4.10;84.30;;;;;;5025958;28;20029;-66
2021/01/06 10:10:39;;;;;;;11.43;7.70;;;3.90;84.10;;;;;;5032440;28;20030;-66
2021/01/06 10:13:32;;;;;;;13.00;8.68;;;3.80;84.70;;;;;;5031553;28;20108;-66
2021/01/06 10:16:23;;;;;;;14.50;9.73;;;3.80;84.30;;;;;;5025492;28;20025;-65
2021/01/06 10:19:11;;;;;;;16.20;9.82;;;3.70;84.30;;;;;;5038486;28;20029;-66
2021/01/06 10:22:02;;;;;;;13.35;9.45;;;3.60;84.40;;;;;;5036763;28;20493;-64
2021/01/06 10:24:46;;;;;;;11.57;8.35;;;3.60;84.40;;;;;;5021242;28;20030;-63
2021/01/06 10:27:37;;;;;;;13.25;8.45;;;3.50;84.30;;;;;;5028995;28;20049;-67
2021/01/06 10:30:13;;;;;;;13.18;8.88;;;3.50;84.40;;;;;;5025912;28;20064;-65
2021/01/06 10:32:46;;;;;;;15.02;8.77;;;3.40;84.40;;;;;;5032323;28;20021;-65
2021/01/06 10:35:27;;;;;;;14.75;9.00;;;3.40;84.40;;;;;;5029681;28;20686;-65
2021/01/06 10:37:53;;;;;;;12.68;8.70;;;3.40;84.50;;;;;;5030475;28;20504;-65
2021/01/06 10:40:35;;;;;;;14.98;8.98;;;3.40;84.70;;;;;;5032800;28;20033;-65
2021/01/06 10:43:32;;;;;;;12.95;8.75;;;3.40;84.80;;;;;;5017563;28;20025;-64
2021/01/06 10:45:57;;;;;;;12.57;8.45;;;3.40;84.70;;;;;;5018472;28;20025;-65
2021/01/06 10:48:45;;;;;;;16.33;9.38;;;3.40;84.70;;;;;;5045758;28;20140;-65
2021/01/06 10:51:30;;;;;;;14.57;8.65;;;3.40;84.70;;;;;;5030553;28;20541;-67
2021/01/06 10:54:01;;;;;;;15.10;9.27;;;3.40;84.60;;;;;;5030728;28;20083;-66
2021/01/06 10:56:31;;;;;;;14.73;9.13;;;3.40;84.40;;;;;;5044547;28;20049;-66
2021/01/06 10:59:03;;;;;;;18.35;9.88;;;3.40;84.60;;;;;;5031471;28;20037;-68
2021/01/06 11:01:34;;;;;;;;;;;3.40;84.70;;;;;;5030757;28;20048;-67
2021/01/06 11:04:12;;;;;;;13.88;9.40;;;3.40;85.40;;;;;;5029837;28;20381;-65
2021/01/06 11:07:11;;;;;;;14.82;9.30;;;3.50;84.60;;;;;;5026938;28;20033;-65
2021/01/06 11:09:51;;;;;;;14.07;9.13;;;3.50;84.60;;;;;;5024305;28;20758;-68
2021/01/06 11:12:32;;;;;;;13.38;9.27;;;3.50;84.50;;;;;;5025023;28;20065;-67
2021/01/06 11:15:39;;;;;;;11.82;8.52;;;3.50;84.40;;;;;;5030713;28;20025;-68
2021/01/06 11:18:14;;;;;;;14.43;8.93;;;3.50;84.50;;;;;;5024101;28;20525;-67
2021/01/06 11:20:42;;;;;;;12.80;8.93;;;3.50;84.50;;;;;;5027980;28;20037;-66
2021/01/06 11:23:34;;;;;;;14.13;9.00;;;3.40;84.60;;;;;;5039137;28;20017;-67
2021/01/06 11:26:20;;;;;;;;;;;3.50;84.70;;;;;;5030485;28;20022;-67
2021/01/06 11:29:11;;;;;;;14.02;8.75;;;3.40;84.50;;;;;;5016898;28;19939;-67
2021/01/06 11:32:02;;;;;;;13.48;9.25;;;3.40;84.50;;;;;;5029996;28;20033;-69
2021/01/06 11:34:36;;;;;;;11.80;7.80;;;3.40;84.60;;;;;;5025229;28;20042;-68
2021/01/06 11:37:25;;;;;;;11.13;7.82;;;3.40;84.70;;;;;;5030542;28;20022;-67
2021/01/06 11:39:51;;;;;;;12.88;8.35;;;3.30;84.80;;;;;;5023845;28;20044;-66
2021/01/06 11:42:20;;;;;;;14.57;9.60;;;3.40;84.80;;;;;;5023539;28;20473;-66
2021/01/06 11:45:12;;;;;;;13.57;8.77;;;3.40;84.80;;;;;;5012229;28;20083;-68
2021/01/06 11:47:49;;;;;;;15.05;8.88;;;3.40;84.90;;;;;;5023487;28;20108;-66
2021/01/06 11:50:48;;;;;;;12.82;8.45;;;3.30;84.80;;;;;;5036317;22;20045;-65
2021/01/06 11:53:26;;;;;;;14.35;8.85;;;3.30;85.00;;;;;;5023700;28;20026;-65
2021/01/06 11:56:16;;;;;;;12.23;8.75;;;3.30;85.20;;;;;;5023040;28;20044;-65
2021/01/06 11:59:11;;;;;;;13.98;9.48;;;3.30;85.20;;;;;;5021992;28;20117;-66
2021/01/06 12:01:56;;;;;;;14.65;9.50;;;3.30;85.10;;;;;;5009841;28;20125;-65
2021/01/06 12:04:40;;;;;;;14.10;9.13;;;3.40;85.00;;;;;;5008929;28;20057;-65
2021/01/06 12:07:21;;;;;;;157.48;80.57;;;3.30;84.90;;;;;;5010161;28;20105;-65
2021/01/06 12:09:54;;;;;;;22.60;15.15;;;3.30;85.50;;;;;;5026405;28;20125;-65
2021/01/06 12:12:26;;;;;;;50.05;28.73;;;3.40;85.60;;;;;;5002913;28;20505;-65
2021/01/06 12:15:12;;;;;;;244.13;109.63;;;3.40;85.30;;;;;;5010103;28;20040;-66
2021/01/06 12:17:50;;;;;;;191.55;97.07;;;3.50;85.30;;;;;;5009366;28;20121;-70
2021/01/06 12:20:27;;;;;;;45.30;26.25;;;3.50;85.20;;;;;;5010133;28;20594;-66
2021/01/06 12:23:14;;;;;;;20.38;13.77;;;3.50;85.20;;;;;;5010645;28;20055;-66
2021/01/06 12:25:47;;;;;;;14.55;9.32;;;3.50;85.00;;;;;;5006190;28;20097;-66
2021/01/06 12:28:31;;;;;;;13.55;9.02;;;3.50;85.00;;;;;;4990489;28;20474;-66
2021/01/06 12:31:39;;;;;;;11.65;8.25;;;3.40;85.10;;;;;;5008952;28;20038;-66
2021/01/06 12:34:27;;;;;;;12.05;8.27;;;3.40;85.20;;;;;;4995638;28;20041;-65
2021/01/06 12:36:59;;;;;;;12.00;8.02;;;3.40;85.10;;;;;;5003990;28;20041;-65
2021/01/06 12:39:25;;;;;;;16.27;10.05;;;3.30;85.10;;;;;;5010605;28;20029;-65
2021/01/06 12:42:03;;;;;;;16.17;10.10;;;3.30;85.20;;;;;;5010248;28;20036;-66
2021/01/06 12:44:32;;;;;;;12.52;8.65;;;3.40;85.50;;;;;;5009750;28;20026;-66
2021/01/06 12:47:05;;;;;;;12.25;8.82;;;3.40;85.50;;;;;;5010408;28;20429;-66
2021/01/06 12:49:43;;;;;;;11.90;8.25;;;3.40;85.40;;;;;;5010341;28;20028;-67
2021/01/06 12:52:44;;;;;;;11.20;7.60;;;3.40;85.40;;;;;;5007111;28;20037;-66
2021/01/06 12:55:25;;;;;;;11.50;7.82;;;3.40;85.30;;;;;;5004893;28;20137;-66
2021/01/06 12:57:56;;;;;;;12.73;8.55;;;3.40;85.10;;;;;;5007111;28;20030;-66
2021/01/06 13:00:35;;;;;;;12.48;8.48;;;3.40;85.10;;;;;;5009651;28;20030;-66
2021/01/06 13:03:15;;;;;;;11.70;7.25;;;3.40;85.10;;;;;;5009751;28;20433;-67
2021/01/06 13:05:48;;;;;;;11.77;7.60;;;3.40;85.20;;;;;;5008926;28;20080;-66
2021/01/06 13:08:25;;;;;;;13.50;7.55;;;3.40;85.10;;;;;;5010079;28;20068;-66
2021/01/06 13:10:53;;;;;;;13.32;8.32;;;3.40;85.10;;;;;;5009856;28;20029;-67
2021/01/06 13:13:35;;;;;;;11.27;7.57;;;3.40;85.10;;;;;;5013613;28;20026;-67
2021/01/06 13:16:14;;;;;;;53.50;26.90;;;3.50;85.10;;;;;;5009309;28;20049;-67
2021/01/06 13:18:57;;;;;;;19.35;11.95;;;3.50;85.10;;;;;;5014326;28;20069;-67
2021/01/06 13:21:57;;;;;;;11.70;8.02;;;3.50;85.40;;;;;;5013553;28;20393;-67
2021/01/06 13:24:28;;;;;;;12.02;7.88;;;3.60;85.20;;;;;;5028315;28;20018;-67
2021/01/06 13:27:05;;;;;;;10.75;7.25;;;3.60;85.00;;;;;;5013979;28;20018;-67
2021/01/06 13:30:05;;;;;;;9.00;7.03;;;3.60;85.00;;;;;;5013375;28;20026;-65